Terminal Aerodrome Forecast
Issued by NWS

Home | Current Version | Previous Version | Text Only | Print | Product List | Glossary On
Versions: 1 2 3 4 5 6 7 8 9 10 11 12 13 14 15 16 17 18 19 20 21 22 23 24 25 26 27 28 29 30 31
000
FTUS43 KDLH 261249 AAA
TAFHIB
TAF AMD
KHIB 261249Z 2613/2712 01003KT P6SM VCSH OVC012
     FM261500 06004KT P6SM -DZ OVC003
     FM261600 06004KT P6SM OVC008
     FM270200 00000KT P6SM BKN040
     FM270500 00000KT 5SM BR BKN050
     FM271100 00000KT 2SM BR OVC010=

USA.gov is the U.S. government's official web portal to all federal, state and local government web resources and services.